sensor_id;sensor_type;location;lat;lon;timestamp;P1;durP1;ratioP1;P2;durP2;ratioP2
71973;SDS011;59840;52.122;5.404;2023-03-17T00:00:41;4.15;;;1.50;;
71973;SDS011;59840;52.122;5.404;2023-03-17T00:03:10;3.05;;;1.10;;
71973;SDS011;59840;52.122;5.404;2023-03-17T00:05:45;2.47;;;1.20;;
71973;SDS011;59840;52.122;5.404;2023-03-17T00:08:15;1.17;;;0.87;;
71973;SDS011;59840;52.122;5.404;2023-03-17T00:10:48;1.80;;;1.10;;
71973;SDS011;59840;52.122;5.404;2023-03-17T00:13:15;1.55;;;0.75;;
71973;SDS011;59840;52.122;5.404;2023-03-17T00:15:43;1.58;;;1.05;;
71973;SDS011;59840;52.122;5.404;2023-03-17T00:18:15;1.90;;;1.02;;
71973;SDS011;59840;52.122;5.404;2023-03-17T00:20:44;1.30;;;1.00;;
71973;SDS011;59840;52.122;5.404;2023-03-17T00:23:13;2.95;;;1.13;;
71973;SDS011;59840;52.122;5.404;2023-03-17T00:25:42;3.90;;;1.50;;
71973;SDS011;59840;52.122;5.404;2023-03-17T00:28:16;2.08;;;1.02;;
71973;SDS011;59840;52.122;5.404;2023-03-17T00:30:46;1.90;;;1.30;;
71973;SDS011;59840;52.122;5.404;2023-03-17T00:33:14;2.40;;;1.17;;
71973;SDS011;59840;52.122;5.404;2023-03-17T00:35:42;1.65;;;1.08;;
71973;SDS011;59840;52.122;5.404;2023-03-17T00:38:13;1.58;;;1.10;;
71973;SDS011;59840;52.122;5.404;2023-03-17T00:40:41;3.17;;;1.20;;
71973;SDS011;59840;52.122;5.404;2023-03-17T00:43:09;2.05;;;1.00;;
71973;SDS011;59840;52.122;5.404;2023-03-17T00:45:38;2.47;;;1.20;;
71973;SDS011;59840;52.122;5.404;2023-03-17T00:48:11;2.15;;;1.00;;
71973;SDS011;59840;52.122;5.404;2023-03-17T00:50:40;3.65;;;1.15;;
71973;SDS011;59840;52.122;5.404;2023-03-17T00:53:11;2.70;;;1.35;;
71973;SDS011;59840;52.122;5.404;2023-03-17T00:55:40;1.50;;;0.90;;
71973;SDS011;59840;52.122;5.404;2023-03-17T00:58:12;1.67;;;0.93;;
71973;SDS011;59840;52.122;5.404;2023-03-17T01:00:42;1.60;;;1.02;;
71973;SDS011;59840;52.122;5.404;2023-03-17T01:03:10;2.05;;;1.30;;
71973;SDS011;59840;52.122;5.404;2023-03-17T01:05:38;2.58;;;1.10;;
71973;SDS011;59840;52.122;5.404;2023-03-17T01:08:06;1.45;;;1.02;;
71973;SDS011;59840;52.122;5.404;2023-03-17T01:10:33;1.70;;;1.00;;
71973;SDS011;59840;52.122;5.404;2023-03-17T01:13:00;1.40;;;0.82;;
71973;SDS011;59840;52.122;5.404;2023-03-17T01:15:28;1.70;;;1.10;;
71973;SDS011;59840;52.122;5.404;2023-03-17T01:17:59;4.10;;;1.40;;
71973;SDS011;59840;52.122;5.404;2023-03-17T01:20:29;1.75;;;1.20;;
71973;SDS011;59840;52.122;5.404;2023-03-17T01:22:58;2.70;;;1.30;;
71973;SDS011;59840;52.122;5.404;2023-03-17T01:25:25;2.53;;;1.40;;
71973;SDS011;59840;52.122;5.404;2023-03-17T01:27:53;1.92;;;1.30;;
71973;SDS011;59840;52.122;5.404;2023-03-17T01:30:29;1.67;;;0.90;;
71973;SDS011;59840;52.122;5.404;2023-03-17T01:33:03;2.20;;;1.60;;
71973;SDS011;59840;52.122;5.404;2023-03-17T01:35:31;1.73;;;1.00;;
71973;SDS011;59840;52.122;5.404;2023-03-17T01:37:58;2.15;;;1.25;;
71973;SDS011;59840;52.122;5.404;2023-03-17T01:40:26;1.45;;;1.02;;
71973;SDS011;59840;52.122;5.404;2023-03-17T01:48:46;1.70;;;1.10;;
71973;SDS011;59840;52.122;5.404;2023-03-17T01:51:20;2.15;;;1.17;;
71973;SDS011;59840;52.122;5.404;2023-03-17T01:53:52;2.65;;;1.08;;
71973;SDS011;59840;52.122;5.404;2023-03-17T01:56:20;2.35;;;1.05;;
71973;SDS011;59840;52.122;5.404;2023-03-17T01:58:48;1.58;;;1.15;;
71973;SDS011;59840;52.122;5.404;2023-03-17T02:01:18;1.77;;;0.90;;
71973;SDS011;59840;52.122;5.404;2023-03-17T02:03:49;2.95;;;1.42;;
71973;SDS011;59840;52.122;5.404;2023-03-17T02:06:17;2.72;;;1.00;;
71973;SDS011;59840;52.122;5.404;2023-03-17T02:08:43;1.30;;;0.90;;
71973;SDS011;59840;52.122;5.404;2023-03-17T02:11:11;2.08;;;1.10;;
71973;SDS011;59840;52.122;5.404;2023-03-17T02:13:38;1.80;;;1.30;;
71973;SDS011;59840;52.122;5.404;2023-03-17T02:16:11;2.28;;;1.40;;
71973;SDS011;59840;52.122;5.404;2023-03-17T02:18:41;2.90;;;1.10;;
71973;SDS011;59840;52.122;5.404;2023-03-17T02:23:56;1.95;;;0.80;;
71973;SDS011;59840;52.122;5.404;2023-03-17T02:26:27;2.70;;;1.10;;
71973;SDS011;59840;52.122;5.404;2023-03-17T02:28:56;2.65;;;1.00;;
71973;SDS011;59840;52.122;5.404;2023-03-17T02:31:24;2.20;;;1.05;;
71973;SDS011;59840;52.122;5.404;2023-03-17T02:33:52;4.40;;;1.05;;
71973;SDS011;59840;52.122;5.404;2023-03-17T02:36:19;1.48;;;0.95;;
71973;SDS011;59840;52.122;5.404;2023-03-17T02:38:47;2.53;;;1.13;;
71973;SDS011;59840;52.122;5.404;2023-03-17T02:41:13;1.92;;;1.05;;
71973;SDS011;59840;52.122;5.404;2023-03-17T02:43:40;1.20;;;0.80;;
71973;SDS011;59840;52.122;5.404;2023-03-17T02:46:08;1.45;;;0.80;;
71973;SDS011;59840;52.122;5.404;2023-03-17T02:48:34;1.98;;;0.98;;
71973;SDS011;59840;52.122;5.404;2023-03-17T02:51:02;1.70;;;0.90;;
71973;SDS011;59840;52.122;5.404;2023-03-17T02:53:29;1.83;;;1.00;;
71973;SDS011;59840;52.122;5.404;2023-03-17T02:55:56;2.58;;;1.23;;
71973;SDS011;59840;52.122;5.404;2023-03-17T02:58:22;2.53;;;0.98;;
71973;SDS011;59840;52.122;5.404;2023-03-17T03:00:49;1.85;;;0.80;;
71973;SDS011;59840;52.122;5.404;2023-03-17T03:03:15;1.73;;;0.73;;
71973;SDS011;59840;52.122;5.404;2023-03-17T03:05:43;1.58;;;1.17;;
71973;SDS011;59840;52.122;5.404;2023-03-17T03:08:09;2.40;;;0.90;;
71973;SDS011;59840;52.122;5.404;2023-03-17T03:10:36;2.83;;;1.08;;
71973;SDS011;59840;52.122;5.404;2023-03-17T03:13:02;1.23;;;0.90;;
71973;SDS011;59840;52.122;5.404;2023-03-17T03:15:29;1.50;;;0.93;;
71973;SDS011;59840;52.122;5.404;2023-03-17T03:17:56;1.30;;;0.90;;
71973;SDS011;59840;52.122;5.404;2023-03-17T03:20:22;1.98;;;1.20;;
71973;SDS011;59840;52.122;5.404;2023-03-17T03:22:49;2.10;;;0.95;;
71973;SDS011;59840;52.122;5.404;2023-03-17T03:25:15;2.13;;;0.90;;
71973;SDS011;59840;52.122;5.404;2023-03-17T03:27:42;3.97;;;0.80;;
71973;SDS011;59840;52.122;5.404;2023-03-17T03:30:09;1.60;;;0.90;;
71973;SDS011;59840;52.122;5.404;2023-03-17T03:32:36;1.30;;;0.80;;
71973;SDS011;59840;52.122;5.404;2023-03-17T03:35:03;1.55;;;0.98;;
71973;SDS011;59840;52.122;5.404;2023-03-17T03:37:30;1.75;;;1.00;;
71973;SDS011;59840;52.122;5.404;2023-03-17T03:39:56;3.33;;;0.80;;
71973;SDS011;59840;52.122;5.404;2023-03-17T03:42:23;2.35;;;0.88;;
71973;SDS011;59840;52.122;5.404;2023-03-17T03:44:50;2.88;;;0.60;;
71973;SDS011;59840;52.122;5.404;2023-03-17T03:47:16;2.22;;;0.63;;
71973;SDS011;59840;52.122;5.404;2023-03-17T03:49:43;2.22;;;1.00;;
71973;SDS011;59840;52.122;5.404;2023-03-17T03:52:09;2.47;;;0.80;;
71973;SDS011;59840;52.122;5.404;2023-03-17T03:54:36;1.63;;;0.80;;
71973;SDS011;59840;52.122;5.404;2023-03-17T03:57:03;1.52;;;1.13;;
71973;SDS011;59840;52.122;5.404;2023-03-17T03:59:29;1.75;;;0.70;;
71973;SDS011;59840;52.122;5.404;2023-03-17T04:01:56;3.63;;;0.80;;
71973;SDS011;59840;52.122;5.404;2023-03-17T04:04:22;1.80;;;0.90;;
71973;SDS011;59840;52.122;5.404;2023-03-17T04:06:49;1.35;;;0.80;;
71973;SDS011;59840;52.122;5.404;2023-03-17T04:09:15;0.93;;;0.60;;
71973;SDS011;59840;52.122;5.404;2023-03-17T04:11:42;1.33;;;0.70;;
71973;SDS011;59840;52.122;5.404;2023-03-17T04:14:09;3.20;;;0.65;;
71973;SDS011;59840;52.122;5.404;2023-03-17T04:16:35;1.20;;;0.70;;
71973;SDS011;59840;52.122;5.404;2023-03-17T04:19:02;3.05;;;0.80;;
71973;SDS011;59840;52.122;5.404;2023-03-17T04:21:29;1.90;;;0.75;;
71973;SDS011;59840;52.122;5.404;2023-03-17T04:23:55;2.72;;;0.90;;
71973;SDS011;59840;52.122;5.404;2023-03-17T04:26:22;0.85;;;0.50;;
71973;SDS011;59840;52.122;5.404;2023-03-17T04:28:49;1.00;;;0.70;;
71973;SDS011;59840;52.122;5.404;2023-03-17T04:31:16;1.40;;;0.82;;
71973;SDS011;59840;52.122;5.404;2023-03-17T04:33:42;2.17;;;0.68;;
71973;SDS011;59840;52.122;5.404;2023-03-17T04:36:14;1.00;;;0.70;;
71973;SDS011;59840;52.122;5.404;2023-03-17T04:38:43;2.15;;;1.10;;
71973;SDS011;59840;52.122;5.404;2023-03-17T04:41:10;2.80;;;0.80;;
71973;SDS011;59840;52.122;5.404;2023-03-17T04:43:36;2.00;;;0.98;;
71973;SDS011;59840;52.122;5.404;2023-03-17T04:46:03;1.65;;;0.98;;
71973;SDS011;59840;52.122;5.404;2023-03-17T04:48:30;1.10;;;0.68;;
71973;SDS011;59840;52.122;5.404;2023-03-17T04:50:56;1.75;;;0.90;;
71973;SDS011;59840;52.122;5.404;2023-03-17T04:53:23;1.83;;;0.73;;
71973;SDS011;59840;52.122;5.404;2023-03-17T04:55:50;2.00;;;0.70;;
71973;SDS011;59840;52.122;5.404;2023-03-17T04:58:17;3.13;;;0.88;;
71973;SDS011;59840;52.122;5.404;2023-03-17T05:00:55;2.33;;;0.70;;
71973;SDS011;59840;52.122;5.404;2023-03-17T05:03:22;1.63;;;0.63;;
71973;SDS011;59840;52.122;5.404;2023-03-17T05:05:53;1.70;;;0.97;;
71973;SDS011;59840;52.122;5.404;2023-03-17T05:08:19;1.20;;;0.73;;
71973;SDS011;59840;52.122;5.404;2023-03-17T05:10:46;5.88;;;0.70;;
71973;SDS011;59840;52.122;5.404;2023-03-17T05:13:12;1.35;;;0.80;;
71973;SDS011;59840;52.122;5.404;2023-03-17T05:15:39;1.92;;;0.70;;
71973;SDS011;59840;52.122;5.404;2023-03-17T05:18:05;1.80;;;0.80;;
71973;SDS011;59840;52.122;5.404;2023-03-17T05:20:33;1.75;;;0.98;;
71973;SDS011;59840;52.122;5.404;2023-03-17T05:23:00;2.00;;;0.75;;
71973;SDS011;59840;52.122;5.404;2023-03-17T05:25:26;2.38;;;0.70;;
71973;SDS011;59840;52.122;5.404;2023-03-17T05:27:53;3.75;;;1.08;;
71973;SDS011;59840;52.122;5.404;2023-03-17T05:30:19;1.77;;;1.00;;
71973;SDS011;59840;52.122;5.404;2023-03-17T05:32:46;1.77;;;0.70;;
71973;SDS011;59840;52.122;5.404;2023-03-17T05:35:13;1.70;;;0.80;;
71973;SDS011;59840;52.122;5.404;2023-03-17T05:37:40;1.40;;;0.73;;
71973;SDS011;59840;52.122;5.404;2023-03-17T05:40:07;1.73;;;0.80;;
71973;SDS011;59840;52.122;5.404;2023-03-17T05:42:34;2.43;;;1.20;;
71973;SDS011;59840;52.122;5.404;2023-03-17T05:45:00;2.38;;;0.75;;
71973;SDS011;59840;52.122;5.404;2023-03-17T05:47:27;3.17;;;0.95;;
71973;SDS011;59840;52.122;5.404;2023-03-17T05:49:54;1.33;;;0.80;;
71973;SDS011;59840;52.122;5.404;2023-03-17T05:52:21;2.45;;;1.05;;
71973;SDS011;59840;52.122;5.404;2023-03-17T05:54:47;3.93;;;1.07;;
71973;SDS011;59840;52.122;5.404;2023-03-17T05:57:14;1.63;;;0.90;;
71973;SDS011;59840;52.122;5.404;2023-03-17T05:59:41;2.50;;;0.90;;
71973;SDS011;59840;52.122;5.404;2023-03-17T06:02:08;2.17;;;0.80;;
71973;SDS011;59840;52.122;5.404;2023-03-17T06:04:36;1.45;;;0.75;;
71973;SDS011;59840;52.122;5.404;2023-03-17T06:07:04;5.43;;;0.87;;
71973;SDS011;59840;52.122;5.404;2023-03-17T06:09:31;1.60;;;0.80;;
71973;SDS011;59840;52.122;5.404;2023-03-17T06:11:58;1.67;;;0.88;;
71973;SDS011;59840;52.122;5.404;2023-03-17T06:14:25;3.72;;;0.88;;
71973;SDS011;59840;52.122;5.404;2023-03-17T06:16:52;2.78;;;0.65;;
71973;SDS011;59840;52.122;5.404;2023-03-17T06:19:19;1.40;;;0.67;;
71973;SDS011;59840;52.122;5.404;2023-03-17T06:21:45;2.78;;;1.10;;
71973;SDS011;59840;52.122;5.404;2023-03-17T06:24:12;2.53;;;1.00;;
71973;SDS011;59840;52.122;5.404;2023-03-17T06:26:39;1.90;;;0.82;;
71973;SDS011;59840;52.122;5.404;2023-03-17T06:29:06;2.83;;;0.90;;
71973;SDS011;59840;52.122;5.404;2023-03-17T06:31:37;2.67;;;0.80;;
71973;SDS011;59840;52.122;5.404;2023-03-17T06:34:05;1.27;;;0.70;;
71973;SDS011;59840;52.122;5.404;2023-03-17T06:36:31;2.10;;;0.60;;
71973;SDS011;59840;52.122;5.404;2023-03-17T06:38:58;3.70;;;1.10;;
71973;SDS011;59840;52.122;5.404;2023-03-17T06:41:25;1.42;;;1.30;;
71973;SDS011;59840;52.122;5.404;2023-03-17T06:43:52;2.30;;;1.30;;
71973;SDS011;59840;52.122;5.404;2023-03-17T06:46:19;2.60;;;0.98;;
71973;SDS011;59840;52.122;5.404;2023-03-17T06:48:46;1.63;;;0.93;;
71973;SDS011;59840;52.122;5.404;2023-03-17T06:51:12;3.53;;;0.75;;
71973;SDS011;59840;52.122;5.404;2023-03-17T06:53:39;1.67;;;0.95;;
71973;SDS011;59840;52.122;5.404;2023-03-17T06:56:06;2.27;;;0.87;;
71973;SDS011;59840;52.122;5.404;2023-03-17T06:58:42;2.67;;;0.93;;
71973;SDS011;59840;52.122;5.404;2023-03-17T07:01:08;1.70;;;1.20;;
71973;SDS011;59840;52.122;5.404;2023-03-17T07:03:35;1.73;;;1.30;;
71973;SDS011;59840;52.122;5.404;2023-03-17T07:06:03;2.25;;;0.85;;
71973;SDS011;59840;52.122;5.404;2023-03-17T07:08:30;1.40;;;1.10;;
71973;SDS011;59840;52.122;5.404;2023-03-17T07:10:57;5.50;;;1.27;;
71973;SDS011;59840;52.122;5.404;2023-03-17T07:13:24;2.28;;;0.80;;
71973;SDS011;59840;52.122;5.404;2023-03-17T07:15:51;2.88;;;1.30;;
71973;SDS011;59840;52.122;5.404;2023-03-17T07:18:20;4.63;;;1.23;;
71973;SDS011;59840;52.122;5.404;2023-03-17T07:20:46;2.53;;;1.10;;
71973;SDS011;59840;52.122;5.404;2023-03-17T07:23:14;1.42;;;0.90;;
71973;SDS011;59840;52.122;5.404;2023-03-17T07:25:44;2.35;;;1.20;;
71973;SDS011;59840;52.122;5.404;2023-03-17T07:28:12;1.80;;;1.15;;
71973;SDS011;59840;52.122;5.404;2023-03-17T07:30:39;1.73;;;1.05;;
71973;SDS011;59840;52.122;5.404;2023-03-17T07:33:10;2.80;;;1.30;;
71973;SDS011;59840;52.122;5.404;2023-03-17T07:35:36;2.03;;;1.20;;
71973;SDS011;59840;52.122;5.404;2023-03-17T07:38:03;2.33;;;1.30;;
71973;SDS011;59840;52.122;5.404;2023-03-17T07:40:30;2.28;;;1.10;;
71973;SDS011;59840;52.122;5.404;2023-03-17T07:43:00;2.38;;;1.20;;
71973;SDS011;59840;52.122;5.404;2023-03-17T07:45:27;4.73;;;1.30;;
71973;SDS011;59840;52.122;5.404;2023-03-17T07:47:54;2.40;;;1.10;;
71973;SDS011;59840;52.122;5.404;2023-03-17T07:50:21;2.40;;;1.25;;
71973;SDS011;59840;52.122;5.404;2023-03-17T07:52:48;3.95;;;1.55;;
71973;SDS011;59840;52.122;5.404;2023-03-17T07:55:14;5.68;;;1.30;;
71973;SDS011;59840;52.122;5.404;2023-03-17T07:57:41;4.10;;;1.60;;
71973;SDS011;59840;52.122;5.404;2023-03-17T08:00:08;2.50;;;1.60;;
71973;SDS011;59840;52.122;5.404;2023-03-17T08:02:36;3.75;;;1.77;;
71973;SDS011;59840;52.122;5.404;2023-03-17T08:05:03;2.88;;;1.50;;
71973;SDS011;59840;52.122;5.404;2023-03-17T08:07:31;2.17;;;1.48;;
71973;SDS011;59840;52.122;5.404;2023-03-17T08:09:57;2.40;;;1.53;;
71973;SDS011;59840;52.122;5.404;2023-03-17T08:12:24;2.42;;;1.35;;
71973;SDS011;59840;52.122;5.404;2023-03-17T08:14:51;2.63;;;1.50;;
71973;SDS011;59840;52.122;5.404;2023-03-17T08:17:17;4.53;;;1.63;;
71973;SDS011;59840;52.122;5.404;2023-03-17T08:19:44;2.85;;;1.67;;
71973;SDS011;59840;52.122;5.404;2023-03-17T08:22:11;2.73;;;1.60;;
71973;SDS011;59840;52.122;5.404;2023-03-17T08:24:38;4.88;;;1.70;;
71973;SDS011;59840;52.122;5.404;2023-03-17T08:27:08;3.15;;;1.20;;
71973;SDS011;59840;52.122;5.404;2023-03-17T08:29:34;2.22;;;1.63;;
71973;SDS011;59840;52.122;5.404;2023-03-17T08:32:01;2.80;;;1.45;;
71973;SDS011;59840;52.122;5.404;2023-03-17T08:34:28;6.33;;;1.57;;
71973;SDS011;59840;52.122;5.404;2023-03-17T08:36:55;2.75;;;1.52;;
71973;SDS011;59840;52.122;5.404;2023-03-17T08:39:21;2.10;;;1.40;;
71973;SDS011;59840;52.122;5.404;2023-03-17T08:41:48;2.45;;;1.60;;
71973;SDS011;59840;52.122;5.404;2023-03-17T08:44:15;3.75;;;1.65;;
71973;SDS011;59840;52.122;5.404;2023-03-17T08:46:41;3.63;;;1.47;;
71973;SDS011;59840;52.122;5.404;2023-03-17T08:49:08;3.15;;;1.58;;
71973;SDS011;59840;52.122;5.404;2023-03-17T08:51:35;2.95;;;1.27;;
71973;SDS011;59840;52.122;5.404;2023-03-17T08:54:03;2.65;;;1.42;;
71973;SDS011;59840;52.122;5.404;2023-03-17T08:56:32;2.58;;;1.67;;
71973;SDS011;59840;52.122;5.404;2023-03-17T08:58:59;2.60;;;1.50;;
71973;SDS011;59840;52.122;5.404;2023-03-17T09:01:26;2.70;;;1.58;;
71973;SDS011;59840;52.122;5.404;2023-03-17T09:03:53;2.75;;;1.75;;
71973;SDS011;59840;52.122;5.404;2023-03-17T09:06:20;3.75;;;1.70;;
71973;SDS011;59840;52.122;5.404;2023-03-17T09:08:48;2.80;;;1.52;;
71973;SDS011;59840;52.122;5.404;2023-03-17T09:11:22;3.00;;;1.47;;
71973;SDS011;59840;52.122;5.404;2023-03-17T09:13:51;3.15;;;1.88;;
71973;SDS011;59840;52.122;5.404;2023-03-17T09:16:18;1.98;;;1.42;;
71973;SDS011;59840;52.122;5.404;2023-03-17T09:18:48;2.47;;;1.52;;
71973;SDS011;59840;52.122;5.404;2023-03-17T09:21:15;3.22;;;1.35;;
71973;SDS011;59840;52.122;5.404;2023-03-17T09:23:42;3.03;;;1.50;;
71973;SDS011;59840;52.122;5.404;2023-03-17T09:26:10;2.08;;;1.42;;
71973;SDS011;59840;52.122;5.404;2023-03-17T09:28:37;2.35;;;1.33;;
71973;SDS011;59840;52.122;5.404;2023-03-17T09:31:04;2.80;;;1.73;;
71973;SDS011;59840;52.122;5.404;2023-03-17T09:33:39;2.28;;;1.45;;
71973;SDS011;59840;52.122;5.404;2023-03-17T09:36:07;4.27;;;1.60;;
71973;SDS011;59840;52.122;5.404;2023-03-17T09:38:34;4.07;;;1.92;;
71973;SDS011;59840;52.122;5.404;2023-03-17T09:41:10;4.97;;;1.52;;
71973;SDS011;59840;52.122;5.404;2023-03-17T09:52:24;3.33;;;1.92;;
71973;SDS011;59840;52.122;5.404;2023-03-17T09:54:54;7.03;;;2.13;;
71973;SDS011;59840;52.122;5.404;2023-03-17T09:57:27;3.90;;;1.90;;
71973;SDS011;59840;52.122;5.404;2023-03-17T10:00:03;3.78;;;2.10;;
71973;SDS011;59840;52.122;5.404;2023-03-17T10:02:44;3.63;;;1.60;;
71973;SDS011;59840;52.122;5.404;2023-03-17T10:16:14;2.87;;;1.77;;
71973;SDS011;59840;52.122;5.404;2023-03-17T10:18:53;3.72;;;2.03;;
71973;SDS011;59840;52.122;5.404;2023-03-17T10:21:27;7.05;;;2.15;;
71973;SDS011;59840;52.122;5.404;2023-03-17T10:23:57;5.22;;;1.92;;
71973;SDS011;59840;52.122;5.404;2023-03-17T10:28:51;3.10;;;1.80;;
71973;SDS011;59840;52.122;5.404;2023-03-17T10:31:20;3.65;;;1.88;;
71973;SDS011;59840;52.122;5.404;2023-03-17T10:33:54;5.97;;;1.90;;
71973;SDS011;59840;52.122;5.404;2023-03-17T10:36:36;2.95;;;2.00;;
71973;SDS011;59840;52.122;5.404;2023-03-17T10:39:05;3.72;;;1.88;;
71973;SDS011;59840;52.122;5.404;2023-03-17T10:41:38;5.70;;;2.03;;
71973;SDS011;59840;52.122;5.404;2023-03-17T10:44:07;3.25;;;2.13;;
71973;SDS011;59840;52.122;5.404;2023-03-17T10:46:51;3.47;;;1.88;;
71973;SDS011;59840;52.122;5.404;2023-03-17T10:49:19;3.80;;;1.77;;
71973;SDS011;59840;52.122;5.404;2023-03-17T10:51:50;3.42;;;1.90;;
71973;SDS011;59840;52.122;5.404;2023-03-17T10:54:19;3.57;;;1.60;;
71973;SDS011;59840;52.122;5.404;2023-03-17T10:56:48;3.33;;;2.00;;
71973;SDS011;59840;52.122;5.404;2023-03-17T10:59:27;2.70;;;1.88;;
71973;SDS011;59840;52.122;5.404;2023-03-17T11:01:57;4.43;;;1.88;;
71973;SDS011;59840;52.122;5.404;2023-03-17T11:04:32;3.08;;;2.08;;
71973;SDS011;59840;52.122;5.404;2023-03-17T11:07:13;2.03;;;1.77;;
71973;SDS011;59840;52.122;5.404;2023-03-17T11:09:40;4.47;;;2.22;;
71973;SDS011;59840;52.122;5.404;2023-03-17T11:12:20;3.60;;;1.70;;
71973;SDS011;59840;52.122;5.404;2023-03-17T11:14:53;2.45;;;1.88;;
71973;SDS011;59840;52.122;5.404;2023-03-17T11:17:30;2.92;;;2.00;;
71973;SDS011;59840;52.122;5.404;2023-03-17T11:22:33;2.47;;;2.00;;
71973;SDS011;59840;52.122;5.404;2023-03-17T11:25:09;3.55;;;2.00;;
71973;SDS011;59840;52.122;5.404;2023-03-17T11:27:57;4.20;;;2.28;;
71973;SDS011;59840;52.122;5.404;2023-03-17T11:30:46;2.67;;;2.00;;
71973;SDS011;59840;52.122;5.404;2023-03-17T11:36:08;4.13;;;2.10;;
71973;SDS011;59840;52.122;5.404;2023-03-17T11:47:28;3.80;;;2.10;;
71973;SDS011;59840;52.122;5.404;2023-03-17T11:50:02;2.67;;;1.95;;
71973;SDS011;59840;52.122;5.404;2023-03-17T11:55:06;4.47;;;2.22;;
71973;SDS011;59840;52.122;5.404;2023-03-17T12:05:46;2.65;;;2.00;;
71973;SDS011;59840;52.122;5.404;2023-03-17T12:10:51;3.65;;;2.40;;
71973;SDS011;59840;52.122;5.404;2023-03-17T12:13:32;3.33;;;2.17;;
71973;SDS011;59840;52.122;5.404;2023-03-17T12:16:16;2.40;;;2.13;;
71973;SDS011;59840;52.122;5.404;2023-03-17T12:21:29;2.80;;;2.30;;
71973;SDS011;59840;52.122;5.404;2023-03-17T12:24:12;4.55;;;2.47;;
71973;SDS011;59840;52.122;5.404;2023-03-17T12:29:48;2.83;;;2.30;;
71973;SDS011;59840;52.122;5.404;2023-03-17T12:34:53;6.15;;;2.25;;
71973;SDS011;59840;52.122;5.404;2023-03-17T12:37:24;4.50;;;2.30;;
71973;SDS011;59840;52.122;5.404;2023-03-17T12:39:54;4.47;;;2.97;;
71973;SDS011;59840;52.122;5.404;2023-03-17T12:56:41;5.20;;;2.35;;
71973;SDS011;59840;52.122;5.404;2023-03-17T12:58:53;5.55;;;2.47;;
71973;SDS011;59840;52.122;5.404;2023-03-17T13:01:36;5.78;;;3.00;;
71973;SDS011;59840;52.122;5.404;2023-03-17T13:07:08;4.53;;;2.80;;
71973;SDS011;59840;52.122;5.404;2023-03-17T13:09:50;6.50;;;2.88;;
71973;SDS011;59840;52.122;5.404;2023-03-17T13:17:51;4.13;;;2.70;;
71973;SDS011;59840;52.122;5.404;2023-03-17T13:23:36;5.60;;;3.25;;
71973;SDS011;59840;52.122;5.404;2023-03-17T13:26:06;2.60;;;2.40;;
71973;SDS011;59840;52.122;5.404;2023-03-17T13:31:10;4.18;;;2.67;;
71973;SDS011;59840;52.122;5.404;2023-03-17T13:33:39;4.00;;;2.60;;
71973;SDS011;59840;52.122;5.404;2023-03-17T13:49:48;3.97;;;2.97;;
71973;SDS011;59840;52.122;5.404;2023-03-17T13:52:31;4.13;;;3.15;;
71973;SDS011;59840;52.122;5.404;2023-03-17T13:55:04;7.25;;;2.80;;
71973;SDS011;59840;52.122;5.404;2023-03-17T13:57:54;3.75;;;2.80;;
71973;SDS011;59840;52.122;5.404;2023-03-17T14:00:45;4.00;;;2.60;;
71973;SDS011;59840;52.122;5.404;2023-03-17T14:03:16;5.10;;;2.70;;
71973;SDS011;59840;52.122;5.404;2023-03-17T14:05:49;5.05;;;3.00;;
71973;SDS011;59840;52.122;5.404;2023-03-17T14:08:20;4.00;;;2.70;;
71973;SDS011;59840;52.122;5.404;2023-03-17T14:10:55;4.00;;;3.25;;
71973;SDS011;59840;52.122;5.404;2023-03-17T14:16:15;4.97;;;3.42;;
71973;SDS011;59840;52.122;5.404;2023-03-17T14:18:52;7.50;;;3.70;;
71973;SDS011;59840;52.122;5.404;2023-03-17T14:21:31;4.95;;;3.53;;
71973;SDS011;59840;52.122;5.404;2023-03-17T14:24:18;10.63;;;3.72;;
71973;SDS011;59840;52.122;5.404;2023-03-17T14:26:45;18.30;;;4.03;;
71973;SDS011;59840;52.122;5.404;2023-03-17T14:29:14;13.95;;;3.83;;
71973;SDS011;59840;52.122;5.404;2023-03-17T14:31:46;11.98;;;3.58;;
71973;SDS011;59840;52.122;5.404;2023-03-17T14:34:20;5.63;;;2.88;;
71973;SDS011;59840;52.122;5.404;2023-03-17T14:36:47;4.38;;;2.83;;
71973;SDS011;59840;52.122;5.404;2023-03-17T14:39:23;5.13;;;2.90;;
71973;SDS011;59840;52.122;5.404;2023-03-17T14:42:00;4.03;;;3.20;;
71973;SDS011;59840;52.122;5.404;2023-03-17T14:44:40;5.80;;;3.45;;
71973;SDS011;59840;52.122;5.404;2023-03-17T14:47:26;4.45;;;2.92;;
71973;SDS011;59840;52.122;5.404;2023-03-17T14:49:53;3.53;;;2.78;;
71973;SDS011;59840;52.122;5.404;2023-03-17T14:52:23;3.60;;;2.70;;
71973;SDS011;59840;52.122;5.404;2023-03-17T14:54:52;3.63;;;3.15;;
71973;SDS011;59840;52.122;5.404;2023-03-17T14:57:21;4.22;;;3.03;;
71973;SDS011;59840;52.122;5.404;2023-03-17T14:59:59;6.35;;;2.90;;
71973;SDS011;59840;52.122;5.404;2023-03-17T15:05:17;6.67;;;3.23;;
71973;SDS011;59840;52.122;5.404;2023-03-17T15:07:51;3.83;;;3.20;;
71973;SDS011;59840;52.122;5.404;2023-03-17T15:10:19;6.05;;;3.45;;
71973;SDS011;59840;52.122;5.404;2023-03-17T15:12:49;4.55;;;3.25;;
71973;SDS011;59840;52.122;5.404;2023-03-17T15:15:28;4.72;;;3.00;;
71973;SDS011;59840;52.122;5.404;2023-03-17T15:17:57;4.43;;;3.30;;
71973;SDS011;59840;52.122;5.404;2023-03-17T15:20:28;3.13;;;2.70;;
71973;SDS011;59840;52.122;5.404;2023-03-17T15:23:35;3.83;;;2.88;;
71973;SDS011;59840;52.122;5.404;2023-03-17T15:25:54;3.90;;;2.97;;
71973;SDS011;59840;52.122;5.404;2023-03-17T15:28:24;3.60;;;3.20;;
71973;SDS011;59840;52.122;5.404;2023-03-17T15:30:52;3.97;;;3.00;;
71973;SDS011;59840;52.122;5.404;2023-03-17T15:35:54;4.43;;;2.80;;
71973;SDS011;59840;52.122;5.404;2023-03-17T15:38:27;3.92;;;2.75;;
71973;SDS011;59840;52.122;5.404;2023-03-17T15:40:54;8.60;;;2.90;;
71973;SDS011;59840;52.122;5.404;2023-03-17T15:43:21;4.73;;;3.00;;
71973;SDS011;59840;52.122;5.404;2023-03-17T15:46:01;3.75;;;2.60;;
71973;SDS011;59840;52.122;5.404;2023-03-17T15:48:31;5.10;;;2.40;;
71973;SDS011;59840;52.122;5.404;2023-03-17T15:51:03;4.70;;;2.80;;
71973;SDS011;59840;52.122;5.404;2023-03-17T15:53:31;5.07;;;2.88;;
71973;SDS011;59840;52.122;5.404;2023-03-17T15:55:57;5.07;;;2.83;;
71973;SDS011;59840;52.122;5.404;2023-03-17T15:58:24;4.40;;;2.70;;
71973;SDS011;59840;52.122;5.404;2023-03-17T16:00:52;3.63;;;2.55;;
71973;SDS011;59840;52.122;5.404;2023-03-17T16:03:23;5.10;;;2.70;;
71973;SDS011;59840;52.122;5.404;2023-03-17T16:05:54;5.38;;;2.92;;
71973;SDS011;59840;52.122;5.404;2023-03-17T16:08:21;4.43;;;2.90;;
71973;SDS011;59840;52.122;5.404;2023-03-17T16:10:48;4.60;;;2.90;;
71973;SDS011;59840;52.122;5.404;2023-03-17T16:13:14;5.10;;;3.00;;
71973;SDS011;59840;52.122;5.404;2023-03-17T16:15:42;4.00;;;2.72;;
71973;SDS011;59840;52.122;5.404;2023-03-17T16:18:13;4.50;;;3.00;;
71973;SDS011;59840;52.122;5.404;2023-03-17T16:20:44;4.80;;;3.10;;
71973;SDS011;59840;52.122;5.404;2023-03-17T16:23:13;4.13;;;2.40;;
71973;SDS011;59840;52.122;5.404;2023-03-17T16:25:44;5.32;;;2.85;;
71973;SDS011;59840;52.122;5.404;2023-03-17T16:28:13;3.40;;;2.60;;
71973;SDS011;59840;52.122;5.404;2023-03-17T16:30:45;4.35;;;2.83;;
71973;SDS011;59840;52.122;5.404;2023-03-17T16:36:01;4.85;;;3.10;;
71973;SDS011;59840;52.122;5.404;2023-03-17T16:38:28;6.88;;;3.50;;
71973;SDS011;59840;52.122;5.404;2023-03-17T16:40:58;9.00;;;3.60;;
71973;SDS011;59840;52.122;5.404;2023-03-17T16:43:27;6.65;;;3.97;;
71973;SDS011;59840;52.122;5.404;2023-03-17T16:45:59;5.53;;;3.70;;
71973;SDS011;59840;52.122;5.404;2023-03-17T16:48:28;6.20;;;3.80;;
71973;SDS011;59840;52.122;5.404;2023-03-17T16:50:55;7.57;;;3.58;;
71973;SDS011;59840;52.122;5.404;2023-03-17T16:53:22;6.68;;;3.92;;
71973;SDS011;59840;52.122;5.404;2023-03-17T16:55:50;6.90;;;3.58;;
71973;SDS011;59840;52.122;5.404;2023-03-17T17:00:50;4.65;;;3.78;;
71973;SDS011;59840;52.122;5.404;2023-03-17T17:03:19;4.68;;;3.63;;